sensor_id;sensor_type;location;lat;lon;timestamp;temperature;humidity
21568;DHT22;10944;42.590;12.630;2023-05-23T00:00:40;14.90;99.90
21568;DHT22;10944;42.590;12.630;2023-05-23T00:03:06;14.90;99.90
21568;DHT22;10944;42.590;12.630;2023-05-23T00:05:33;14.90;99.90
21568;DHT22;10944;42.590;12.630;2023-05-23T00:08:00;14.90;99.90
21568;DHT22;10944;42.590;12.630;2023-05-23T00:10:28;14.80;99.90
21568;DHT22;10944;42.590;12.630;2023-05-23T00:12:54;14.90;99.90
21568;DHT22;10944;42.590;12.630;2023-05-23T00:15:19;14.90;99.90
21568;DHT22;10944;42.590;12.630;2023-05-23T00:17:46;14.90;99.90
21568;DHT22;10944;42.590;12.630;2023-05-23T00:20:12;14.80;99.90
21568;DHT22;10944;42.590;12.630;2023-05-23T00:22:38;14.80;99.90
21568;DHT22;10944;42.590;12.630;2023-05-23T00:25:08;14.70;99.90
21568;DHT22;10944;42.590;12.630;2023-05-23T00:27:34;14.70;99.90
21568;DHT22;10944;42.590;12.630;2023-05-23T00:30:00;14.70;99.90
21568;DHT22;10944;42.590;12.630;2023-05-23T00:32:26;14.80;99.90
21568;DHT22;10944;42.590;12.630;2023-05-23T00:34:54;14.70;99.90
21568;DHT22;10944;42.590;12.630;2023-05-23T00:37:22;14.80;99.90
21568;DHT22;10944;42.590;12.630;2023-05-23T00:39:48;14.80;99.90
21568;DHT22;10944;42.590;12.630;2023-05-23T00:42:14;14.80;99.90
21568;DHT22;10944;42.590;12.630;2023-05-23T00:44:39;14.80;99.90
21568;DHT22;10944;42.590;12.630;2023-05-23T00:47:06;14.80;99.90
21568;DHT22;10944;42.590;12.630;2023-05-23T00:49:33;14.80;99.90
21568;DHT22;10944;42.590;12.630;2023-05-23T00:51:59;14.80;99.90
21568;DHT22;10944;42.590;12.630;2023-05-23T00:54:29;14.80;99.90
21568;DHT22;10944;42.590;12.630;2023-05-23T00:56:58;14.70;99.90
21568;DHT22;10944;42.590;12.630;2023-05-23T00:59:25;14.70;99.90
21568;DHT22;10944;42.590;12.630;2023-05-23T01:01:52;14.60;99.90
21568;DHT22;10944;42.590;12.630;2023-05-23T01:04:19;14.60;99.90
21568;DHT22;10944;42.590;12.630;2023-05-23T01:06:45;14.70;99.90
21568;DHT22;10944;42.590;12.630;2023-05-23T01:09:17;14.70;99.90
21568;DHT22;10944;42.590;12.630;2023-05-23T01:14:41;14.80;99.90
21568;DHT22;10944;42.590;12.630;2023-05-23T01:17:18;14.90;99.90
21568;DHT22;10944;42.590;12.630;2023-05-23T01:19:55;14.90;99.90
21568;DHT22;10944;42.590;12.630;2023-05-23T01:27:56;14.80;99.90
21568;DHT22;10944;42.590;12.630;2023-05-23T01:30:24;14.80;99.90
21568;DHT22;10944;42.590;12.630;2023-05-23T01:32:53;15.00;99.90
21568;DHT22;10944;42.590;12.630;2023-05-23T01:35:27;15.10;99.90
21568;DHT22;10944;42.590;12.630;2023-05-23T01:37:56;15.10;99.90
21568;DHT22;10944;42.590;12.630;2023-05-23T01:40:25;15.10;99.90
21568;DHT22;10944;42.590;12.630;2023-05-23T01:42:52;15.10;99.90
21568;DHT22;10944;42.590;12.630;2023-05-23T01:45:20;15.20;99.90
21568;DHT22;10944;42.590;12.630;2023-05-23T01:47:48;15.20;99.90
21568;DHT22;10944;42.590;12.630;2023-05-23T01:50:15;15.10;99.90
21568;DHT22;10944;42.590;12.630;2023-05-23T01:52:42;15.00;99.90
21568;DHT22;10944;42.590;12.630;2023-05-23T01:55:08;14.90;99.90
21568;DHT22;10944;42.590;12.630;2023-05-23T01:57:36;14.90;99.90
21568;DHT22;10944;42.590;12.630;2023-05-23T02:00:05;14.80;99.90
21568;DHT22;10944;42.590;12.630;2023-05-23T02:02:34;14.70;99.90
21568;DHT22;10944;42.590;12.630;2023-05-23T02:05:00;14.60;99.90
21568;DHT22;10944;42.590;12.630;2023-05-23T02:07:26;14.40;99.90
21568;DHT22;10944;42.590;12.630;2023-05-23T02:09:53;14.40;99.90
21568;DHT22;10944;42.590;12.630;2023-05-23T02:12:18;14.50;99.90
21568;DHT22;10944;42.590;12.630;2023-05-23T02:14:44;14.60;99.90
21568;DHT22;10944;42.590;12.630;2023-05-23T02:17:11;14.60;99.90
21568;DHT22;10944;42.590;12.630;2023-05-23T02:19:39;14.50;99.90
21568;DHT22;10944;42.590;12.630;2023-05-23T02:22:05;14.40;99.90
21568;DHT22;10944;42.590;12.630;2023-05-23T02:24:30;14.30;99.90
21568;DHT22;10944;42.590;12.630;2023-05-23T02:26:56;14.30;99.90
21568;DHT22;10944;42.590;12.630;2023-05-23T02:29:22;14.30;99.90
21568;DHT22;10944;42.590;12.630;2023-05-23T02:31:47;14.30;99.90
21568;DHT22;10944;42.590;12.630;2023-05-23T02:34:13;14.20;99.90
21568;DHT22;10944;42.590;12.630;2023-05-23T02:36:39;14.20;99.90
21568;DHT22;10944;42.590;12.630;2023-05-23T02:39:05;14.20;99.90
21568;DHT22;10944;42.590;12.630;2023-05-23T02:41:31;14.10;99.90
21568;DHT22;10944;42.590;12.630;2023-05-23T02:43:57;14.10;99.90
21568;DHT22;10944;42.590;12.630;2023-05-23T02:46:23;14.10;99.90
21568;DHT22;10944;42.590;12.630;2023-05-23T02:48:49;14.00;99.90
21568;DHT22;10944;42.590;12.630;2023-05-23T02:51:14;14.00;99.90
21568;DHT22;10944;42.590;12.630;2023-05-23T02:53:40;13.90;99.90
21568;DHT22;10944;42.590;12.630;2023-05-23T02:56:06;13.80;99.90
21568;DHT22;10944;42.590;12.630;2023-05-23T02:58:33;13.70;99.90
21568;DHT22;10944;42.590;12.630;2023-05-23T03:01:03;13.70;99.90
21568;DHT22;10944;42.590;12.630;2023-05-23T03:03:29;13.70;99.90
21568;DHT22;10944;42.590;12.630;2023-05-23T03:05:56;13.70;99.90
21568;DHT22;10944;42.590;12.630;2023-05-23T03:08:23;13.70;99.90
21568;DHT22;10944;42.590;12.630;2023-05-23T03:10:49;13.70;99.90
21568;DHT22;10944;42.590;12.630;2023-05-23T03:13:15;13.70;99.90
21568;DHT22;10944;42.590;12.630;2023-05-23T03:15:41;13.80;99.90
21568;DHT22;10944;42.590;12.630;2023-05-23T03:18:07;13.90;99.90
21568;DHT22;10944;42.590;12.630;2023-05-23T03:20:32;14.00;99.90
21568;DHT22;10944;42.590;12.630;2023-05-23T03:22:58;14.00;99.90
21568;DHT22;10944;42.590;12.630;2023-05-23T03:25:24;13.90;99.90
21568;DHT22;10944;42.590;12.630;2023-05-23T03:27:50;13.90;99.90
21568;DHT22;10944;42.590;12.630;2023-05-23T03:30:16;13.90;99.90
21568;DHT22;10944;42.590;12.630;2023-05-23T03:32:42;13.80;99.90
21568;DHT22;10944;42.590;12.630;2023-05-23T03:35:08;14.00;99.90
21568;DHT22;10944;42.590;12.630;2023-05-23T03:37:33;14.00;99.90
21568;DHT22;10944;42.590;12.630;2023-05-23T03:39:59;14.00;99.90
21568;DHT22;10944;42.590;12.630;2023-05-23T03:42:26;14.00;99.90
21568;DHT22;10944;42.590;12.630;2023-05-23T03:44:52;13.90;99.90
21568;DHT22;10944;42.590;12.630;2023-05-23T03:47:18;13.90;99.90
21568;DHT22;10944;42.590;12.630;2023-05-23T03:49:43;13.90;99.90
21568;DHT22;10944;42.590;12.630;2023-05-23T03:52:09;13.80;99.90
21568;DHT22;10944;42.590;12.630;2023-05-23T03:54:35;13.80;99.90
21568;DHT22;10944;42.590;12.630;2023-05-23T03:57:01;13.80;99.90
21568;DHT22;10944;42.590;12.630;2023-05-23T03:59:27;13.80;99.90
21568;DHT22;10944;42.590;12.630;2023-05-23T04:01:53;13.80;99.90
21568;DHT22;10944;42.590;12.630;2023-05-23T04:04:19;13.80;99.90
21568;DHT22;10944;42.590;12.630;2023-05-23T04:06:49;13.80;99.90
21568;DHT22;10944;42.590;12.630;2023-05-23T04:09:16;13.80;99.90
21568;DHT22;10944;42.590;12.630;2023-05-23T04:11:42;13.80;99.90
21568;DHT22;10944;42.590;12.630;2023-05-23T04:14:08;13.80;99.90
21568;DHT22;10944;42.590;12.630;2023-05-23T04:16:35;13.80;99.90
21568;DHT22;10944;42.590;12.630;2023-05-23T04:19:01;13.90;99.90
21568;DHT22;10944;42.590;12.630;2023-05-23T04:21:28;13.90;99.90
21568;DHT22;10944;42.590;12.630;2023-05-23T04:23:55;13.90;99.90
21568;DHT22;10944;42.590;12.630;2023-05-23T04:26:21;14.00;99.90
21568;DHT22;10944;42.590;12.630;2023-05-23T04:28:47;14.10;99.90
21568;DHT22;10944;42.590;12.630;2023-05-23T04:31:13;14.10;99.90
21568;DHT22;10944;42.590;12.630;2023-05-23T04:33:39;14.20;99.90
21568;DHT22;10944;42.590;12.630;2023-05-23T04:36:06;14.30;99.90
21568;DHT22;10944;42.590;12.630;2023-05-23T04:38:35;14.30;99.90
21568;DHT22;10944;42.590;12.630;2023-05-23T04:41:03;14.70;99.90
21568;DHT22;10944;42.590;12.630;2023-05-23T04:43:30;15.50;99.90
21568;DHT22;10944;42.590;12.630;2023-05-23T04:45:58;16.40;99.90
21568;DHT22;10944;42.590;12.630;2023-05-23T04:48:24;16.80;99.90
21568;DHT22;10944;42.590;12.630;2023-05-23T04:50:51;16.70;99.90
21568;DHT22;10944;42.590;12.630;2023-05-23T04:53:17;16.60;99.90
21568;DHT22;10944;42.590;12.630;2023-05-23T04:55:43;16.90;99.90
21568;DHT22;10944;42.590;12.630;2023-05-23T04:58:09;17.20;99.90
21568;DHT22;10944;42.590;12.630;2023-05-23T05:00:34;17.20;99.90
21568;DHT22;10944;42.590;12.630;2023-05-23T05:03:00;17.20;99.90
21568;DHT22;10944;42.590;12.630;2023-05-23T05:05:26;17.10;99.90
21568;DHT22;10944;42.590;12.630;2023-05-23T05:07:52;17.10;99.90
21568;DHT22;10944;42.590;12.630;2023-05-23T05:10:18;17.10;99.90
21568;DHT22;10944;42.590;12.630;2023-05-23T05:12:45;17.40;99.90
21568;DHT22;10944;42.590;12.630;2023-05-23T05:15:17;17.50;99.90
21568;DHT22;10944;42.590;12.630;2023-05-23T05:17:44;17.60;99.90
21568;DHT22;10944;42.590;12.630;2023-05-23T05:20:10;17.70;99.90
21568;DHT22;10944;42.590;12.630;2023-05-23T05:22:39;18.00;99.90
21568;DHT22;10944;42.590;12.630;2023-05-23T05:25:06;17.90;99.90
21568;DHT22;10944;42.590;12.630;2023-05-23T05:27:33;18.00;99.90
21568;DHT22;10944;42.590;12.630;2023-05-23T05:29:59;18.10;99.90
21568;DHT22;10944;42.590;12.630;2023-05-23T05:32:29;18.40;99.90
21568;DHT22;10944;42.590;12.630;2023-05-23T05:34:59;18.30;99.90
21568;DHT22;10944;42.590;12.630;2023-05-23T05:37:25;18.20;99.90
21568;DHT22;10944;42.590;12.630;2023-05-23T05:39:51;18.20;99.90
21568;DHT22;10944;42.590;12.630;2023-05-23T05:42:19;18.40;99.90
21568;DHT22;10944;42.590;12.630;2023-05-23T05:44:45;18.60;99.90
21568;DHT22;10944;42.590;12.630;2023-05-23T05:47:11;18.90;99.90
21568;DHT22;10944;42.590;12.630;2023-05-23T05:49:37;19.40;99.90
21568;DHT22;10944;42.590;12.630;2023-05-23T05:52:05;20.00;99.90
21568;DHT22;10944;42.590;12.630;2023-05-23T05:54:31;21.50;99.90
21568;DHT22;10944;42.590;12.630;2023-05-23T05:56:57;22.90;99.90
21568;DHT22;10944;42.590;12.630;2023-05-23T05:59:22;23.40;99.90
21568;DHT22;10944;42.590;12.630;2023-05-23T06:01:48;22.20;99.90
21568;DHT22;10944;42.590;12.630;2023-05-23T06:04:16;21.20;99.90
21568;DHT22;10944;42.590;12.630;2023-05-23T06:06:42;20.30;99.90
21568;DHT22;10944;42.590;12.630;2023-05-23T06:09:08;19.70;99.90
21568;DHT22;10944;42.590;12.630;2023-05-23T06:11:33;19.60;99.90
21568;DHT22;10944;42.590;12.630;2023-05-23T06:13:59;19.70;99.90
21568;DHT22;10944;42.590;12.630;2023-05-23T06:16:25;19.80;99.90
21568;DHT22;10944;42.590;12.630;2023-05-23T06:18:50;20.00;99.90
21568;DHT22;10944;42.590;12.630;2023-05-23T06:21:16;20.20;99.90
21568;DHT22;10944;42.590;12.630;2023-05-23T06:23:42;20.30;99.90
21568;DHT22;10944;42.590;12.630;2023-05-23T06:26:07;20.80;99.90
21568;DHT22;10944;42.590;12.630;2023-05-23T06:28:37;22.20;99.90
21568;DHT22;10944;42.590;12.630;2023-05-23T06:31:03;23.80;99.90
21568;DHT22;10944;42.590;12.630;2023-05-23T06:33:29;24.90;98.80
21568;DHT22;10944;42.590;12.630;2023-05-23T06:35:55;25.70;97.90
21568;DHT22;10944;42.590;12.630;2023-05-23T06:38:21;26.10;97.30
21568;DHT22;10944;42.590;12.630;2023-05-23T06:40:47;25.80;97.60
21568;DHT22;10944;42.590;12.630;2023-05-23T06:43:13;25.00;98.00
21568;DHT22;10944;42.590;12.630;2023-05-23T06:45:38;24.20;99.40
21568;DHT22;10944;42.590;12.630;2023-05-23T06:48:04;23.40;99.30
21568;DHT22;10944;42.590;12.630;2023-05-23T06:50:30;23.00;99.90
21568;DHT22;10944;42.590;12.630;2023-05-23T06:52:56;22.60;99.90
21568;DHT22;10944;42.590;12.630;2023-05-23T06:55:22;22.30;99.90
21568;DHT22;10944;42.590;12.630;2023-05-23T06:57:48;22.00;99.90
21568;DHT22;10944;42.590;12.630;2023-05-23T07:00:17;22.00;99.90
21568;DHT22;10944;42.590;12.630;2023-05-23T07:02:43;21.80;99.90
21568;DHT22;10944;42.590;12.630;2023-05-23T07:05:13;21.70;99.90
21568;DHT22;10944;42.590;12.630;2023-05-23T07:07:40;21.60;99.90
21568;DHT22;10944;42.590;12.630;2023-05-23T07:10:06;21.60;99.90
21568;DHT22;10944;42.590;12.630;2023-05-23T07:12:32;21.60;99.90
21568;DHT22;10944;42.590;12.630;2023-05-23T07:14:57;21.50;99.90
21568;DHT22;10944;42.590;12.630;2023-05-23T07:17:23;21.40;99.90
21568;DHT22;10944;42.590;12.630;2023-05-23T07:19:49;21.50;99.90
21568;DHT22;10944;42.590;12.630;2023-05-23T07:22:15;21.50;99.90
21568;DHT22;10944;42.590;12.630;2023-05-23T07:24:40;21.40;99.90
21568;DHT22;10944;42.590;12.630;2023-05-23T07:27:06;21.30;99.90
21568;DHT22;10944;42.590;12.630;2023-05-23T07:29:32;21.10;99.90
21568;DHT22;10944;42.590;12.630;2023-05-23T07:31:58;21.10;99.90
21568;DHT22;10944;42.590;12.630;2023-05-23T07:34:24;21.10;99.90
21568;DHT22;10944;42.590;12.630;2023-05-23T07:36:51;21.10;99.90
21568;DHT22;10944;42.590;12.630;2023-05-23T07:39:17;21.30;99.90
21568;DHT22;10944;42.590;12.630;2023-05-23T07:41:47;21.30;99.90
21568;DHT22;10944;42.590;12.630;2023-05-23T07:44:13;21.30;99.90
21568;DHT22;10944;42.590;12.630;2023-05-23T07:46:39;21.40;99.90
21568;DHT22;10944;42.590;12.630;2023-05-23T07:49:04;21.40;99.90
21568;DHT22;10944;42.590;12.630;2023-05-23T07:51:30;21.30;99.90
21568;DHT22;10944;42.590;12.630;2023-05-23T07:53:57;21.40;99.90
21568;DHT22;10944;42.590;12.630;2023-05-23T07:56:22;21.30;99.90
21568;DHT22;10944;42.590;12.630;2023-05-23T07:58:48;21.20;99.90
21568;DHT22;10944;42.590;12.630;2023-05-23T08:01:13;21.20;99.90
21568;DHT22;10944;42.590;12.630;2023-05-23T08:03:39;21.20;99.90
21568;DHT22;10944;42.590;12.630;2023-05-23T08:06:05;21.30;99.90
21568;DHT22;10944;42.590;12.630;2023-05-23T08:08:32;21.30;99.90
21568;DHT22;10944;42.590;12.630;2023-05-23T08:10:58;21.30;99.90
21568;DHT22;10944;42.590;12.630;2023-05-23T08:13:23;21.30;99.90
21568;DHT22;10944;42.590;12.630;2023-05-23T08:15:49;21.50;99.90
21568;DHT22;10944;42.590;12.630;2023-05-23T08:18:15;21.60;99.90
21568;DHT22;10944;42.590;12.630;2023-05-23T08:20:41;21.60;99.90
21568;DHT22;10944;42.590;12.630;2023-05-23T08:23:06;21.90;99.90
21568;DHT22;10944;42.590;12.630;2023-05-23T08:25:32;22.00;99.90
21568;DHT22;10944;42.590;12.630;2023-05-23T08:27:58;22.00;99.90
21568;DHT22;10944;42.590;12.630;2023-05-23T08:30:25;21.90;99.90
21568;DHT22;10944;42.590;12.630;2023-05-23T08:32:52;21.90;99.90
21568;DHT22;10944;42.590;12.630;2023-05-23T08:35:18;21.70;99.90
21568;DHT22;10944;42.590;12.630;2023-05-23T08:37:44;21.90;99.90
21568;DHT22;10944;42.590;12.630;2023-05-23T08:40:18;22.00;99.90
21568;DHT22;10944;42.590;12.630;2023-05-23T08:42:46;22.00;99.90
21568;DHT22;10944;42.590;12.630;2023-05-23T08:45:13;22.20;99.90
21568;DHT22;10944;42.590;12.630;2023-05-23T08:47:41;22.30;99.90
21568;DHT22;10944;42.590;12.630;2023-05-23T08:50:08;22.40;99.90
21568;DHT22;10944;42.590;12.630;2023-05-23T08:52:37;22.40;99.90
21568;DHT22;10944;42.590;12.630;2023-05-23T08:55:08;22.30;99.90
21568;DHT22;10944;42.590;12.630;2023-05-23T08:57:35;22.30;99.90
21568;DHT22;10944;42.590;12.630;2023-05-23T09:00:03;22.40;99.90
21568;DHT22;10944;42.590;12.630;2023-05-23T09:02:36;22.60;99.90
21568;DHT22;10944;42.590;12.630;2023-05-23T09:05:02;22.60;99.90
21568;DHT22;10944;42.590;12.630;2023-05-23T09:07:28;22.60;99.90
21568;DHT22;10944;42.590;12.630;2023-05-23T09:09:54;22.60;99.90
21568;DHT22;10944;42.590;12.630;2023-05-23T09:12:20;22.80;99.90
21568;DHT22;10944;42.590;12.630;2023-05-23T09:14:49;22.80;99.90
21568;DHT22;10944;42.590;12.630;2023-05-23T09:17:18;22.80;99.90
21568;DHT22;10944;42.590;12.630;2023-05-23T09:19:43;22.80;99.90
21568;DHT22;10944;42.590;12.630;2023-05-23T09:22:10;22.80;99.90
21568;DHT22;10944;42.590;12.630;2023-05-23T09:24:36;22.90;99.90
21568;DHT22;10944;42.590;12.630;2023-05-23T09:27:04;23.00;99.90
21568;DHT22;10944;42.590;12.630;2023-05-23T09:29:31;23.00;99.90
21568;DHT22;10944;42.590;12.630;2023-05-23T09:32:13;23.10;99.90
21568;DHT22;10944;42.590;12.630;2023-05-23T09:37:19;23.30;99.90
21568;DHT22;10944;42.590;12.630;2023-05-23T09:39:49;23.40;99.90
21568;DHT22;10944;42.590;12.630;2023-05-23T09:42:19;23.30;99.70
21568;DHT22;10944;42.590;12.630;2023-05-23T09:44:45;23.20;99.90
21568;DHT22;10944;42.590;12.630;2023-05-23T09:47:11;23.20;99.90
21568;DHT22;10944;42.590;12.630;2023-05-23T09:49:42;23.30;99.90
21568;DHT22;10944;42.590;12.630;2023-05-23T09:52:07;23.50;99.90
21568;DHT22;10944;42.590;12.630;2023-05-23T09:54:33;23.60;99.90
21568;DHT22;10944;42.590;12.630;2023-05-23T09:57:01;23.40;99.40
21568;DHT22;10944;42.590;12.630;2023-05-23T09:59:31;23.50;99.90
21568;DHT22;10944;42.590;12.630;2023-05-23T10:02:01;23.60;98.70
21568;DHT22;10944;42.590;12.630;2023-05-23T10:04:30;23.60;98.80
21568;DHT22;10944;42.590;12.630;2023-05-23T10:07:01;23.80;99.80
21568;DHT22;10944;42.590;12.630;2023-05-23T10:09:32;23.90;99.80
21568;DHT22;10944;42.590;12.630;2023-05-23T10:15:01;23.90;99.00
21568;DHT22;10944;42.590;12.630;2023-05-23T10:17:59;23.90;97.90
21568;DHT22;10944;42.590;12.630;2023-05-23T10:20:29;24.00;98.30
21568;DHT22;10944;42.590;12.630;2023-05-23T10:23:02;24.20;98.10
21568;DHT22;10944;42.590;12.630;2023-05-23T10:25:29;24.20;96.40
21568;DHT22;10944;42.590;12.630;2023-05-23T10:27:57;24.40;97.60
21568;DHT22;10944;42.590;12.630;2023-05-23T10:30:27;24.40;96.90
21568;DHT22;10944;42.590;12.630;2023-05-23T10:32:56;24.40;97.10
21568;DHT22;10944;42.590;12.630;2023-05-23T10:35:46;24.40;98.30
21568;DHT22;10944;42.590;12.630;2023-05-23T10:38:30;24.40;97.50
21568;DHT22;10944;42.590;12.630;2023-05-23T10:41:15;24.50;98.50
21568;DHT22;10944;42.590;12.630;2023-05-23T10:44:16;24.40;99.10
21568;DHT22;10944;42.590;12.630;2023-05-23T10:47:03;24.60;97.80
21568;DHT22;10944;42.590;12.630;2023-05-23T10:52:08;24.60;99.00
21568;DHT22;10944;42.590;12.630;2023-05-23T10:54:44;24.80;98.20
21568;DHT22;10944;42.590;12.630;2023-05-23T10:57:11;24.70;96.70
21568;DHT22;10944;42.590;12.630;2023-05-23T10:59:40;24.60;99.00
21568;DHT22;10944;42.590;12.630;2023-05-23T11:02:12;24.70;97.40
21568;DHT22;10944;42.590;12.630;2023-05-23T11:04:41;24.70;98.70
21568;DHT22;10944;42.590;12.630;2023-05-23T11:07:31;24.80;98.30
21568;DHT22;10944;42.590;12.630;2023-05-23T11:12:40;24.90;96.40
21568;DHT22;10944;42.590;12.630;2023-05-23T11:15:24;24.60;97.10
21568;DHT22;10944;42.590;12.630;2023-05-23T11:17:55;24.60;96.90
21568;DHT22;10944;42.590;12.630;2023-05-23T11:20:23;24.70;98.30
21568;DHT22;10944;42.590;12.630;2023-05-23T11:25:42;24.90;97.90
21568;DHT22;10944;42.590;12.630;2023-05-23T11:28:09;25.10;99.00
21568;DHT22;10944;42.590;12.630;2023-05-23T11:30:35;25.20;98.60
21568;DHT22;10944;42.590;12.630;2023-05-23T11:33:13;25.40;98.30
21568;DHT22;10944;42.590;12.630;2023-05-23T11:35:40;25.30;98.10
21568;DHT22;10944;42.590;12.630;2023-05-23T11:38:07;25.40;98.50
21568;DHT22;10944;42.590;12.630;2023-05-23T11:40:38;25.30;98.10
21568;DHT22;10944;42.590;12.630;2023-05-23T11:43:12;25.20;97.20
21568;DHT22;10944;42.590;12.630;2023-05-23T11:45:39;25.20;97.50
21568;DHT22;10944;42.590;12.630;2023-05-23T11:48:10;25.20;96.70
21568;DHT22;10944;42.590;12.630;2023-05-23T11:50:48;25.20;97.10
21568;DHT22;10944;42.590;12.630;2023-05-23T11:53:14;25.30;97.10
21568;DHT22;10944;42.590;12.630;2023-05-23T11:55:53;25.50;98.50
21568;DHT22;10944;42.590;12.630;2023-05-23T11:58:26;25.50;96.70
21568;DHT22;10944;42.590;12.630;2023-05-23T12:00:58;25.40;96.50
21568;DHT22;10944;42.590;12.630;2023-05-23T12:03:23;25.30;96.00
21568;DHT22;10944;42.590;12.630;2023-05-23T12:05:49;25.40;96.60
21568;DHT22;10944;42.590;12.630;2023-05-23T12:08:15;25.60;96.10
21568;DHT22;10944;42.590;12.630;2023-05-23T12:10:51;25.60;95.30
21568;DHT22;10944;42.590;12.630;2023-05-23T12:13:18;25.60;95.60
21568;DHT22;10944;42.590;12.630;2023-05-23T12:15:44;25.60;95.80
21568;DHT22;10944;42.590;12.630;2023-05-23T12:18:12;25.90;97.10
21568;DHT22;10944;42.590;12.630;2023-05-23T12:20:37;26.00;95.30
21568;DHT22;10944;42.590;12.630;2023-05-23T12:23:05;26.00;95.40
21568;DHT22;10944;42.590;12.630;2023-05-23T12:25:40;26.10;95.70
21568;DHT22;10944;42.590;12.630;2023-05-23T12:28:09;26.40;96.80
21568;DHT22;10944;42.590;12.630;2023-05-23T12:30:41;26.40;95.20
21568;DHT22;10944;42.590;12.630;2023-05-23T12:33:08;26.20;95.40
21568;DHT22;10944;42.590;12.630;2023-05-23T12:35:34;25.90;96.30
21568;DHT22;10944;42.590;12.630;2023-05-23T12:38:00;25.90;96.70
21568;DHT22;10944;42.590;12.630;2023-05-23T12:40:27;26.00;96.20
21568;DHT22;10944;42.590;12.630;2023-05-23T12:42:54;26.00;96.10
21568;DHT22;10944;42.590;12.630;2023-05-23T12:45:42;26.20;95.80
21568;DHT22;10944;42.590;12.630;2023-05-23T12:48:07;26.30;96.60
21568;DHT22;10944;42.590;12.630;2023-05-23T12:50:33;26.10;97.00
21568;DHT22;10944;42.590;12.630;2023-05-23T12:53:00;25.90;95.90
21568;DHT22;10944;42.590;12.630;2023-05-23T12:55:25;25.50;95.90
21568;DHT22;10944;42.590;12.630;2023-05-23T12:57:51;25.20;95.90
21568;DHT22;10944;42.590;12.630;2023-05-23T13:00:17;25.00;96.10
21568;DHT22;10944;42.590;12.630;2023-05-23T13:02:43;24.80;96.60
21568;DHT22;10944;42.590;12.630;2023-05-23T13:05:09;24.80;96.30
21568;DHT22;10944;42.590;12.630;2023-05-23T13:07:35;24.70;96.10
21568;DHT22;10944;42.590;12.630;2023-05-23T13:10:02;24.60;96.90
21568;DHT22;10944;42.590;12.630;2023-05-23T13:12:28;24.60;98.20
21568;DHT22;10944;42.590;12.630;2023-05-23T13:14:54;24.50;99.50
21568;DHT22;10944;42.590;12.630;2023-05-23T13:17:19;24.50;98.50
21568;DHT22;10944;42.590;12.630;2023-05-23T13:19:45;24.40;98.40
21568;DHT22;10944;42.590;12.630;2023-05-23T13:22:11;24.30;96.50
21568;DHT22;10944;42.590;12.630;2023-05-23T13:24:39;24.20;97.80
21568;DHT22;10944;42.590;12.630;2023-05-23T13:27:05;24.10;97.90
21568;DHT22;10944;42.590;12.630;2023-05-23T13:29:31;24.00;98.70
21568;DHT22;10944;42.590;12.630;2023-05-23T13:31:57;23.90;99.70
21568;DHT22;10944;42.590;12.630;2023-05-23T13:34:24;23.90;99.90
21568;DHT22;10944;42.590;12.630;2023-05-23T13:36:51;23.90;99.90
21568;DHT22;10944;42.590;12.630;2023-05-23T13:39:17;23.80;99.90
21568;DHT22;10944;42.590;12.630;2023-05-23T13:41:45;23.60;99.90
21568;DHT22;10944;42.590;12.630;2023-05-23T13:44:11;23.40;99.90
21568;DHT22;10944;42.590;12.630;2023-05-23T13:46:37;23.30;99.90
21568;DHT22;10944;42.590;12.630;2023-05-23T13:49:02;23.10;97.70
21568;DHT22;10944;42.590;12.630;2023-05-23T13:51:28;23.00;97.70
21568;DHT22;10944;42.590;12.630;2023-05-23T13:53:54;22.90;98.40
21568;DHT22;10944;42.590;12.630;2023-05-23T13:56:20;22.80;99.50
21568;DHT22;10944;42.590;12.630;2023-05-23T13:58:45;22.70;99.90
21568;DHT22;10944;42.590;12.630;2023-05-23T14:01:11;22.50;99.90
21568;DHT22;10944;42.590;12.630;2023-05-23T14:03:37;22.30;99.90
21568;DHT22;10944;42.590;12.630;2023-05-23T14:06:03;21.90;99.90
21568;DHT22;10944;42.590;12.630;2023-05-23T14:08:29;21.10;99.90
21568;DHT22;10944;42.590;12.630;2023-05-23T14:10:55;20.70;99.90
21568;DHT22;10944;42.590;12.630;2023-05-23T14:13:21;20.40;99.90
21568;DHT22;10944;42.590;12.630;2023-05-23T14:15:49;19.80;99.90
21568;DHT22;10944;42.590;12.630;2023-05-23T14:18:15;19.40;99.90
21568;DHT22;10944;42.590;12.630;2023-05-23T14:20:41;19.00;99.90
21568;DHT22;10944;42.590;12.630;2023-05-23T14:23:06;18.80;99.90
21568;DHT22;10944;42.590;12.630;2023-05-23T14:25:32;18.70;99.90
21568;DHT22;10944;42.590;12.630;2023-05-23T14:27:58;18.40;99.90
21568;DHT22;10944;42.590;12.630;2023-05-23T14:30:23;18.40;99.90
21568;DHT22;10944;42.590;12.630;2023-05-23T14:32:49;18.40;99.90
21568;DHT22;10944;42.590;12.630;2023-05-23T14:35:15;18.30;99.90
21568;DHT22;10944;42.590;12.630;2023-05-23T14:37:40;18.20;99.90
21568;DHT22;10944;42.590;12.630;2023-05-23T14:40:07;18.20;99.90
21568;DHT22;10944;42.590;12.630;2023-05-23T14:42:34;18.10;99.90
21568;DHT22;10944;42.590;12.630;2023-05-23T14:45:01;18.00;99.90
21568;DHT22;10944;42.590;12.630;2023-05-23T14:47:27;18.00;99.90
21568;DHT22;10944;42.590;12.630;2023-05-23T14:49:52;18.00;99.90
21568;DHT22;10944;42.590;12.630;2023-05-23T14:52:18;18.10;99.90
21568;DHT22;10944;42.590;12.630;2023-05-23T14:54:44;18.10;99.90
21568;DHT22;10944;42.590;12.630;2023-05-23T14:57:09;18.10;99.90
21568;DHT22;10944;42.590;12.630;2023-05-23T14:59:35;18.30;99.90
21568;DHT22;10944;42.590;12.630;2023-05-23T15:02:04;18.10;99.90
21568;DHT22;10944;42.590;12.630;2023-05-23T15:04:32;18.00;99.90
21568;DHT22;10944;42.590;12.630;2023-05-23T15:06:58;18.00;99.90
21568;DHT22;10944;42.590;12.630;2023-05-23T15:09:25;17.80;99.90
21568;DHT22;10944;42.590;12.630;2023-05-23T15:11:51;17.80;99.90
21568;DHT22;10944;42.590;12.630;2023-05-23T15:14:17;17.80;99.90
21568;DHT22;10944;42.590;12.630;2023-05-23T15:16:44;17.60;99.90
21568;DHT22;10944;42.590;12.630;2023-05-23T15:19:10;17.60;99.90
21568;DHT22;10944;42.590;12.630;2023-05-23T15:21:36;17.60;99.90
21568;DHT22;10944;42.590;12.630;2023-05-23T15:24:02;17.60;99.90
21568;DHT22;10944;42.590;12.630;2023-05-23T15:26:28;17.60;99.90
21568;DHT22;10944;42.590;12.630;2023-05-23T15:28:54;17.50;99.90
21568;DHT22;10944;42.590;12.630;2023-05-23T15:31:20;17.50;99.90
21568;DHT22;10944;42.590;12.630;2023-05-23T15:33:46;17.40;99.90
21568;DHT22;10944;42.590;12.630;2023-05-23T15:36:12;17.40;99.90
21568;DHT22;10944;42.590;12.630;2023-05-23T15:38:38;17.50;99.90